Time;durP1;ratioP1;P1;durP2;ratioP2;P2;SDS_P1;SDS_P2;PMS_P1;PMS_P2;Temp;Humidity;BMP_temperature;BMP_pressure;BME280_temperature;BME280_humidity;BME280_pressure;Samples;Min_cycle;Max_cycle;Signal;HPM_P1;HPM_P2
2022/05/04 00:01:16;;;;;;;9.10;7.47;;;14.10;98.80;;;;;;5079208;28;20193;-90
2022/05/04 00:03:42;;;;;;;7.67;7.07;;;14.20;98.90;;;;;;5098094;28;20172;-90
2022/05/04 00:06:10;;;;;;;8.40;7.10;;;14.10;98.70;;;;;;5097996;28;20688;-90
2022/05/04 00:08:37;;;;;;;8.43;7.60;;;14.00;99.00;;;;;;5085590;28;20212;-90
2022/05/04 00:11:03;;;;;;;7.33;6.77;;;14.00;99.00;;;;;;5087180;28;20269;-89
2022/05/04 00:13:29;;;;;;;7.97;7.30;;;13.90;99.50;;;;;;5097987;28;20177;-90
2022/05/04 00:15:55;;;;;;;7.87;7.17;;;13.80;99.70;;;;;;5079017;28;20176;-89
2022/05/04 00:18:21;;;;;;;7.70;7.10;;;13.60;99.90;;;;;;5095754;28;20211;-90
2022/05/04 00:20:46;;;;;;;7.43;6.80;;;13.50;99.90;;;;;;5096781;28;20180;-89
2022/05/04 00:23:12;;;;;;;7.80;7.27;;;13.30;99.90;;;;;;5095853;28;20252;-89
2022/05/04 00:25:38;;;;;;;7.80;7.17;;;13.20;99.90;;;;;;5088270;28;20192;-89
2022/05/04 00:28:04;;;;;;;7.53;6.93;;;13.20;99.90;;;;;;5078736;28;20208;-90
2022/05/04 00:30:31;;;;;;;6.93;6.43;;;13.20;99.90;;;;;;5097657;28;20171;-89
2022/05/04 00:32:58;;;;;;;7.43;6.63;;;13.30;99.90;;;;;;5096336;28;20241;-89
2022/05/04 00:35:24;;;;;;;6.97;6.47;;;13.10;99.90;;;;;;5078749;28;20184;-90
2022/05/04 00:37:49;;;;;;;7.60;6.93;;;13.10;99.90;;;;;;5079039;28;20227;-90
2022/05/04 00:40:15;;;;;;;7.67;7.17;;;13.10;99.90;;;;;;5075310;28;20177;-90
2022/05/04 00:42:41;;;;;;;7.67;7.03;;;13.20;99.90;;;;;;5068524;28;20193;-90
2022/05/04 00:45:07;;;;;;;7.47;6.87;;;13.20;99.90;;;;;;5097348;28;20202;-90
2022/05/04 00:47:33;;;;;;;7.60;7.00;;;13.40;99.10;;;;;;5112214;28;20199;-90
2022/05/04 00:50:04;;;;;;;8.10;7.40;;;13.40;99.40;;;;;;5114999;28;20186;-90
2022/05/04 00:52:34;;;;;;;7.13;6.53;;;13.40;99.90;;;;;;5096888;28;20156;-90
2022/05/04 00:55:02;;;;;;;7.17;6.67;;;13.40;97.90;;;;;;5065767;28;20295;-90
2022/05/04 01:00:14;;;;;;;8.27;7.50;;;13.00;98.50;;;;;;5083783;28;20223;-89
2022/05/04 01:02:41;;;;;;;7.17;6.57;;;12.90;99.10;;;;;;5090608;28;20191;-90
2022/05/04 01:05:09;;;;;;;7.30;6.60;;;12.90;98.50;;;;;;5081527;28;20212;-89
2022/05/04 01:07:36;;;;;;;7.73;6.70;;;12.90;98.20;;;;;;5074966;28;20219;-89
2022/05/04 01:10:04;;;;;;;6.67;6.23;;;12.90;98.60;;;;;;5080732;28;20199;-90
2022/05/04 01:12:29;;;;;;;7.17;6.63;;;13.00;98.10;;;;;;5096046;28;20179;-89
2022/05/04 01:14:55;;;;;;;7.27;6.77;;;13.00;97.30;;;;;;5078426;28;20185;-89
2022/05/04 01:17:21;;;;;;;6.93;6.33;;;13.00;97.00;;;;;;5075712;28;20215;-89
2022/05/04 01:19:46;;;;;;;6.87;6.27;;;12.90;96.90;;;;;;5077962;28;20215;-89
2022/05/04 01:22:12;;;;;;;7.17;6.57;;;13.00;96.90;;;;;;5094501;28;20184;-89
2022/05/04 01:24:39;;;;;;;7.70;7.10;;;12.90;97.10;;;;;;5076257;28;20266;-89
2022/05/04 01:27:11;;;;;;;7.17;6.47;;;12.90;97.10;;;;;;5094957;28;20246;-89
2022/05/04 01:29:36;;;;;;;6.40;5.90;;;13.00;95.70;;;;;;5077657;28;20204;-89
2022/05/04 01:32:02;;;;;;;6.63;6.03;;;12.80;96.70;;;;;;5096836;28;20183;-89
2022/05/04 01:34:28;;;;;;;6.33;5.93;;;12.60;98.30;;;;;;5081107;28;20721;-89
2022/05/04 01:36:54;;;;;;;7.23;6.63;;;12.70;99.10;;;;;;5045954;28;20633;-89
2022/05/04 01:39:19;;;;;;;6.97;6.47;;;12.70;98.90;;;;;;5082626;28;20320;-89
2022/05/04 01:42:03;;;;;;;8.93;7.03;;;12.40;98.80;;;;;;5105750;28;20187;-89
2022/05/04 01:44:35;;;;;;;7.87;6.77;;;12.20;99.90;;;;;;5094277;28;20191;-90
2022/05/04 01:47:01;;;;;;;7.03;6.50;;;12.30;99.90;;;;;;5071652;28;20244;-90
2022/05/04 01:49:27;;;;;;;6.93;6.37;;;12.40;99.90;;;;;;5081773;28;20232;-89
2022/05/04 01:51:53;;;;;;;7.57;6.97;;;12.50;99.90;;;;;;5092300;28;20255;-90
2022/05/04 01:54:19;;;;;;;7.43;6.73;;;12.50;99.90;;;;;;5081424;28;20186;-89
2022/05/04 01:56:45;;;;;;;7.83;7.13;;;12.60;99.90;;;;;;5080510;28;20750;-89
2022/05/04 01:59:11;;;;;;;7.10;6.57;;;12.70;99.60;;;;;;5099237;28;20614;-90
2022/05/04 02:01:40;;;;;;;6.67;6.17;;;12.80;98.30;;;;;;5098926;28;20187;-89
2022/05/04 02:04:06;;;;;;;6.93;6.40;;;12.80;98.00;;;;;;5078487;28;20292;-90
2022/05/04 02:06:32;;;;;;;7.43;6.67;;;12.80;98.80;;;;;;5090248;28;20678;-90
2022/05/04 02:08:58;;;;;;;7.13;6.53;;;12.80;99.10;;;;;;5085533;28;20192;-89
2022/05/04 02:11:24;;;;;;;6.90;6.30;;;12.80;99.90;;;;;;5078164;28;20192;-89
2022/05/04 02:13:51;;;;;;;6.57;6.07;;;12.70;97.20;;;;;;5079078;28;20188;-89
2022/05/04 02:16:17;;;;;;;7.17;6.57;;;12.60;99.10;;;;;;5099356;28;20255;-89
2022/05/04 02:18:43;;;;;;;7.03;6.37;;;12.70;99.40;;;;;;5084053;28;20241;-89
2022/05/04 02:21:09;;;;;;;6.93;6.30;;;12.80;99.20;;;;;;5102646;28;20642;-89
2022/05/04 02:23:35;;;;;;;8.47;6.73;;;12.70;98.20;;;;;;5089150;28;20184;-89
2022/05/04 02:26:01;;;;;;;6.67;6.07;;;12.70;99.10;;;;;;5099647;28;20225;-89
2022/05/04 02:28:27;;;;;;;7.10;6.50;;;12.70;99.60;;;;;;5104434;28;20257;-89
2022/05/04 02:30:52;;;;;;;7.13;6.53;;;12.80;99.70;;;;;;5084529;28;20674;-90
2022/05/04 02:33:18;;;;;;;7.03;6.43;;;12.70;98.90;;;;;;5103702;28;20192;-89
2022/05/04 02:38:28;;;;;;;7.37;6.57;;;12.60;98.50;;;;;;5102279;28;20237;-89
2022/05/04 02:40:54;;;;;;;7.57;6.40;;;12.70;99.90;;;;;;5102901;28;20179;-89
2022/05/04 02:43:20;;;;;;;7.77;6.23;;;12.60;98.20;;;;;;5064456;28;20941;-89
2022/05/04 02:45:46;;;;;;;6.70;6.10;;;12.50;98.40;;;;;;5083497;28;20203;-89
2022/05/04 02:48:11;;;;;;;6.83;6.27;;;12.50;97.80;;;;;;5073111;28;20628;-89
2022/05/04 02:50:37;;;;;;;7.53;6.90;;;12.40;98.20;;;;;;5081002;28;20192;-89
2022/05/04 02:53:04;;;;;;;6.67;6.00;;;12.40;98.00;;;;;;5043187;28;20183;-88
2022/05/04 02:55:30;;;;;;;6.77;6.27;;;12.40;97.40;;;;;;5082529;28;20323;-89
2022/05/04 02:57:56;;;;;;;6.00;5.60;;;12.30;98.20;;;;;;5098184;28;20875;-89
2022/05/04 03:00:22;;;;;;;6.50;6.00;;;12.40;98.00;;;;;;5070941;28;20215;-88
2022/05/04 03:02:48;;;;;;;5.87;5.37;;;12.30;97.20;;;;;;5073376;28;20179;-88
2022/05/04 03:05:15;;;;;;;6.57;6.07;;;12.30;98.50;;;;;;5069755;28;20199;-89
2022/05/04 03:07:41;;;;;;;8.00;6.17;;;12.20;98.30;;;;;;5079822;28;20243;-89
2022/05/04 03:10:07;;;;;;;6.20;5.80;;;12.20;98.90;;;;;;5061718;28;20191;-89
2022/05/04 03:12:33;;;;;;;6.60;6.00;;;12.20;98.60;;;;;;5084703;28;20659;-89
2022/05/04 03:14:59;;;;;;;7.83;6.17;;;12.30;98.80;;;;;;5088910;28;20415;-88
2022/05/04 03:17:25;;;;;;;7.17;6.50;;;12.30;99.00;;;;;;5078447;28;20749;-89
2022/05/04 03:19:52;;;;;;;7.50;6.43;;;12.30;98.90;;;;;;5087898;28;20206;-88
2022/05/04 03:22:18;;;;;;;6.30;5.80;;;12.30;99.00;;;;;;5097050;28;20563;-89
2022/05/04 03:24:44;;;;;;;7.83;6.00;;;12.30;99.10;;;;;;5047271;28;20314;-89
2022/05/04 03:27:10;;;;;;;7.23;6.60;;;12.30;98.80;;;;;;5097763;28;20303;-89
2022/05/04 03:29:36;;;;;;;7.20;6.60;;;12.30;98.70;;;;;;5090226;28;20183;-88
2022/05/04 03:32:03;;;;;;;7.83;7.13;;;12.30;99.00;;;;;;5089688;28;20218;-88
2022/05/04 03:34:29;;;;;;;8.13;7.27;;;12.30;99.30;;;;;;5094919;28;20183;-89
2022/05/04 03:36:55;;;;;;;7.90;7.30;;;12.30;99.60;;;;;;5097299;28;20599;-89
2022/05/04 03:39:20;;;;;;;11.40;6.10;;;12.40;99.90;;;;;;5078735;28;20355;-89
2022/05/04 03:41:46;;;;;;;6.90;6.20;;;12.50;99.10;;;;;;5066976;28;20668;-89
2022/05/04 03:44:12;;;;;;;7.23;6.60;;;12.30;98.60;;;;;;5092684;28;20568;-89
2022/05/04 03:46:43;;;;;;;6.80;5.93;;;12.40;99.00;;;;;;5093268;28;20681;-89
2022/05/04 03:49:09;;;;;;;7.10;6.60;;;12.40;98.90;;;;;;5098097;28;20175;-89
2022/05/04 03:51:35;;;;;;;7.30;6.70;;;12.40;99.30;;;;;;5096718;28;20193;-89
2022/05/04 03:54:01;;;;;;;7.67;6.97;;;12.30;99.90;;;;;;5079142;28;20187;-90
2022/05/04 03:56:26;;;;;;;7.30;6.77;;;12.30;99.90;;;;;;5082013;28;20204;-89
2022/05/04 03:58:52;;;;;;;7.60;6.93;;;12.40;99.90;;;;;;5077561;28;20211;-90
2022/05/04 04:01:18;;;;;;;7.50;6.70;;;12.30;99.90;;;;;;5059467;28;20209;-89
2022/05/04 04:03:44;;;;;;;7.20;6.50;;;12.30;99.90;;;;;;5077706;28;20210;-90
2022/05/04 04:06:11;;;;;;;8.77;7.40;;;12.30;99.90;;;;;;5078799;28;20181;-90
2022/05/04 04:08:37;;;;;;;7.53;6.97;;;12.30;99.90;;;;;;5095617;28;20338;-90
2022/05/04 04:11:04;;;;;;;7.33;6.63;;;12.20;99.90;;;;;;5089387;28;20197;-89
2022/05/04 04:13:30;;;;;;;7.10;6.57;;;12.30;99.90;;;;;;5074312;28;20183;-90
2022/05/04 04:15:56;;;;;;;7.20;6.50;;;12.30;99.90;;;;;;5079644;28;20189;-89
2022/05/04 04:18:25;;;;;;;11.17;7.00;;;12.30;99.30;;;;;;5079977;28;20215;-90
2022/05/04 04:23:38;;;;;;;6.97;6.27;;;12.30;99.90;;;;;;5082381;28;20231;-90
2022/05/04 04:26:05;;;;;;;13.57;12.57;;;12.40;99.90;;;;;;5078148;28;20184;-90
2022/05/04 04:28:35;;;;;;;7.30;6.27;;;12.50;99.70;;;;;;5078119;28;20192;-88
2022/05/04 04:31:01;;;;;;;6.80;6.13;;;12.60;98.80;;;;;;5085696;28;20186;-89
2022/05/04 04:33:29;;;;;;;6.80;6.30;;;12.70;98.40;;;;;;5077777;28;20245;-89
2022/05/04 04:35:59;;;;;;;7.23;6.27;;;12.80;97.80;;;;;;5091310;28;20673;-89
2022/05/04 04:38:26;;;;;;;6.83;6.23;;;12.80;97.80;;;;;;5091662;28;20212;-88
2022/05/04 04:40:52;;;;;;;9.33;6.23;;;12.60;98.90;;;;;;5079181;28;20732;-89
2022/05/04 04:43:19;;;;;;;6.27;5.77;;;12.70;98.50;;;;;;5084451;28;20187;-89
2022/05/04 04:45:48;;;;;;;7.70;6.57;;;12.90;98.20;;;;;;5092012;28;20219;-88
2022/05/04 04:48:16;;;;;;;12.30;6.43;;;12.90;96.90;;;;;;5061071;28;20288;-89
2022/05/04 04:50:45;;;;;;;6.63;6.13;;;12.80;98.40;;;;;;5097394;28;20227;-89
2022/05/04 04:53:11;;;;;;;6.40;5.83;;;12.90;97.90;;;;;;5080871;28;20400;-89
2022/05/04 04:55:39;;;;;;;6.77;6.17;;;13.00;97.70;;;;;;5101046;28;20203;-89
2022/05/04 04:58:05;;;;;;;7.83;6.90;;;13.10;97.20;;;;;;5084226;28;20224;-89
2022/05/04 05:00:31;;;;;;;7.00;6.30;;;13.10;97.20;;;;;;5097575;28;20192;-89
2022/05/04 05:02:56;;;;;;;7.50;6.60;;;13.10;97.60;;;;;;5091379;28;20203;-89
2022/05/04 05:05:23;;;;;;;7.43;6.80;;;13.10;97.60;;;;;;5087758;28;20255;-89
2022/05/04 05:07:49;;;;;;;7.33;6.47;;;13.10;97.10;;;;;;5092436;28;20668;-89
2022/05/04 05:10:14;;;;;;;8.70;6.37;;;13.10;97.40;;;;;;5090898;28;20270;-89
2022/05/04 05:12:40;;;;;;;6.90;6.03;;;13.20;96.90;;;;;;5091552;28;20188;-89
2022/05/04 05:17:51;;;;;;;7.93;7.03;;;13.30;97.80;;;;;;5093162;28;20443;-89
2022/05/04 05:20:17;;;;;;;7.03;6.30;;;13.20;98.50;;;;;;5089619;28;20192;-89
2022/05/04 05:22:43;;;;;;;21.43;8.00;;;13.30;97.70;;;;;;5091878;28;20181;-89
2022/05/04 05:25:09;;;;;;;7.23;6.63;;;13.40;97.50;;;;;;5096978;28;20192;-89
2022/05/04 05:27:35;;;;;;;7.47;6.73;;;13.40;97.00;;;;;;5108273;28;20253;-91
2022/05/04 05:30:01;;;;;;;7.27;6.67;;;13.50;96.40;;;;;;5107961;28;20255;-90
2022/05/04 05:32:26;;;;;;;6.97;6.40;;;13.50;97.00;;;;;;5096950;28;20242;-89
2022/05/04 05:34:52;;;;;;;7.47;6.87;;;13.60;96.70;;;;;;5092410;28;20643;-90
2022/05/04 05:37:20;;;;;;;7.37;6.77;;;13.50;98.60;;;;;;5086038;28;20207;-89
2022/05/04 05:39:46;;;;;;;6.60;6.10;;;13.50;98.10;;;;;;5073062;28;20204;-90
2022/05/04 05:42:12;;;;;;;7.63;7.00;;;13.50;98.00;;;;;;5090613;28;20190;-90
2022/05/04 05:44:37;;;;;;;7.17;6.67;;;13.50;98.50;;;;;;5049499;28;20206;-89
2022/05/04 05:47:04;;;;;;;6.80;6.30;;;13.50;99.00;;;;;;5072629;28;20290;-89
2022/05/04 05:49:30;;;;;;;7.30;6.80;;;13.60;98.70;;;;;;5086127;28;20184;-89
2022/05/04 05:51:56;;;;;;;7.60;7.00;;;13.60;97.70;;;;;;5070080;28;20557;-90
2022/05/04 05:54:22;;;;;;;7.40;6.80;;;13.60;97.60;;;;;;5084244;28;20206;-90
2022/05/04 05:56:47;;;;;;;7.00;6.50;;;13.60;97.80;;;;;;5067954;28;20222;-90
2022/05/04 05:59:13;;;;;;;7.00;6.50;;;13.60;97.80;;;;;;5080765;28;20570;-90
2022/05/04 06:01:39;;;;;;;7.30;6.60;;;13.60;97.50;;;;;;5071324;28;20299;-90
2022/05/04 06:04:05;;;;;;;7.50;6.90;;;13.70;97.40;;;;;;5087256;28;20276;-90
2022/05/04 06:06:31;;;;;;;7.17;6.57;;;13.70;98.30;;;;;;5069805;28;20414;-90
2022/05/04 06:08:57;;;;;;;7.23;6.53;;;13.80;97.30;;;;;;5082726;28;20208;-90
2022/05/04 06:11:22;;;;;;;6.67;6.07;;;13.90;96.10;;;;;;5084889;28;20276;-89
2022/05/04 06:13:54;;;;;;;7.03;6.43;;;14.10;96.80;;;;;;5087242;28;20194;-89
2022/05/04 06:16:20;;;;;;;6.90;6.40;;;14.20;95.50;;;;;;5084341;28;20196;-89
2022/05/04 06:18:46;;;;;;;7.13;6.50;;;14.30;96.50;;;;;;5076838;28;20229;-89
2022/05/04 06:21:12;;;;;;;6.50;5.90;;;14.20;95.70;;;;;;5076139;28;20187;-89
2022/05/04 06:23:38;;;;;;;7.47;6.77;;;14.40;95.30;;;;;;5093200;28;20179;-89
2022/05/04 06:26:03;;;;;;;8.07;6.27;;;14.50;93.20;;;;;;5076067;28;20595;-89
2022/05/04 06:28:29;;;;;;;6.37;5.87;;;14.60;93.30;;;;;;5095213;28;20891;-89
2022/05/04 06:36:23;;;;;;;8.07;7.33;;;14.50;94.30;;;;;;5097884;28;20180;-89
2022/05/04 06:38:49;;;;;;;8.80;8.10;;;14.50;96.10;;;;;;5079203;28;20210;-89
2022/05/04 06:41:14;;;;;;;8.97;8.17;;;14.60;95.50;;;;;;5082770;28;20212;-89
2022/05/04 06:43:40;;;;;;;7.53;6.83;;;14.60;93.40;;;;;;5084375;28;20179;-89
2022/05/04 06:46:06;;;;;;;7.67;7.07;;;14.80;92.00;;;;;;5085433;28;20175;-89
2022/05/04 06:48:32;;;;;;;8.33;7.53;;;15.10;93.40;;;;;;5101150;28;20210;-90
2022/05/04 06:50:58;;;;;;;8.33;7.50;;;15.20;92.30;;;;;;5096913;28;20272;-89
2022/05/04 06:53:24;;;;;;;9.37;8.60;;;15.40;91.10;;;;;;5077708;28;20274;-89
2022/05/04 06:55:49;;;;;;;10.00;9.03;;;15.50;89.70;;;;;;5072881;28;20202;-89
2022/05/04 06:58:15;;;;;;;9.93;9.17;;;15.50;87.70;;;;;;5076763;28;20215;-89
2022/05/04 07:00:40;;;;;;;12.20;11.10;;;15.30;88.00;;;;;;5072832;28;20182;-89
2022/05/04 07:03:06;;;;;;;12.53;11.43;;;15.50;82.10;;;;;;5088051;28;20194;-89
2022/05/04 07:05:32;;;;;;;13.20;11.83;;;15.50;77.20;;;;;;5093525;28;20265;-89
2022/05/04 07:07:57;;;;;;;13.47;11.53;;;15.50;75.50;;;;;;5093333;28;20207;-89
2022/05/04 07:10:23;;;;;;;12.50;11.30;;;15.40;75.60;;;;;;5093262;28;20584;-89
2022/05/04 07:12:50;;;;;;;13.30;12.07;;;15.50;79.50;;;;;;5063441;28;20278;-89
2022/05/04 07:15:16;;;;;;;12.43;11.30;;;15.50;78.20;;;;;;5067800;28;20241;-89
2022/05/04 07:17:42;;;;;;;12.00;10.90;;;15.60;80.60;;;;;;5071302;28;20232;-89
2022/05/04 07:20:09;;;;;;;12.30;11.20;;;15.60;80.00;;;;;;5071874;28;20273;-87
2022/05/04 07:22:34;;;;;;;13.10;12.00;;;15.50;80.00;;;;;;5054852;28;20186;-88
2022/05/04 07:25:00;;;;;;;12.03;11.03;;;15.70;81.00;;;;;;5080737;28;20548;-89
2022/05/04 07:27:26;;;;;;;11.97;10.97;;;15.80;80.40;;;;;;5087771;28;20203;-89
2022/05/04 07:29:52;;;;;;;12.20;11.20;;;15.80;80.40;;;;;;5069685;28;20199;-89
2022/05/04 07:32:17;;;;;;;11.50;10.50;;;15.90;80.70;;;;;;5071382;28;20187;-89
2022/05/04 07:34:43;;;;;;;12.57;11.27;;;16.00;82.20;;;;;;5076327;28;20190;-89
2022/05/04 07:37:09;;;;;;;12.43;11.23;;;16.00;80.20;;;;;;5092221;28;20773;-89
2022/05/04 07:42:27;;;;;;;12.47;11.33;;;16.10;78.60;;;;;;5096237;28;20235;-89
2022/05/04 07:45:00;;;;;;;13.43;12.20;;;16.20;80.00;;;;;;5087693;28;20198;-89
2022/05/04 07:47:28;;;;;;;12.80;11.60;;;16.40;79.60;;;;;;5088258;28;20219;-89
2022/05/04 07:49:54;;;;;;;13.03;11.70;;;16.40;76.30;;;;;;5077568;28;20216;-89
2022/05/04 07:52:20;;;;;;;13.13;11.97;;;16.50;77.10;;;;;;5056123;28;20645;-90
2022/05/04 07:54:46;;;;;;;14.00;12.70;;;16.60;78.40;;;;;;5080135;28;20206;-89
2022/05/04 07:57:12;;;;;;;13.67;12.43;;;16.70;76.60;;;;;;5095425;28;20262;-89
2022/05/04 07:59:37;;;;;;;13.17;12.13;;;16.60;76.60;;;;;;5094950;28;20236;-89
2022/05/04 08:04:49;;;;;;;13.87;12.57;;;16.80;73.80;;;;;;5092934;28;20596;-89
2022/05/04 08:07:16;;;;;;;14.13;12.77;;;16.80;72.80;;;;;;5069693;28;20608;-89
2022/05/04 08:09:42;;;;;;;13.47;12.40;;;16.80;72.80;;;;;;5073687;28;20181;-89
2022/05/04 08:12:11;;;;;;;12.97;11.97;;;16.90;74.10;;;;;;5083317;28;20216;-89
2022/05/04 08:14:37;;;;;;;13.80;12.67;;;16.80;78.40;;;;;;5092847;28;20190;-89
2022/05/04 08:17:02;;;;;;;14.23;12.70;;;16.60;79.30;;;;;;5094137;28;20254;-90
2022/05/04 08:19:28;;;;;;;13.47;12.37;;;16.50;80.40;;;;;;5094304;28;20208;-89
2022/05/04 08:21:54;;;;;;;14.63;13.33;;;16.60;80.90;;;;;;5073149;28;20181;-89
2022/05/04 08:24:21;;;;;;;14.13;13.00;;;16.50;78.60;;;;;;5090714;28;20183;-89
2022/05/04 08:26:46;;;;;;;14.77;13.37;;;16.40;78.80;;;;;;5072998;28;20242;-89
2022/05/04 08:29:12;;;;;;;13.33;12.33;;;16.70;78.40;;;;;;5077478;28;20180;-89
2022/05/04 08:31:38;;;;;;;14.20;13.00;;;17.00;77.30;;;;;;5079680;28;20258;-89
2022/05/04 08:34:04;;;;;;;13.97;12.87;;;17.10;78.80;;;;;;5060037;28;20192;-89
2022/05/04 08:36:30;;;;;;;14.63;13.43;;;17.00;76.90;;;;;;5095117;28;20181;-89
2022/05/04 08:38:55;;;;;;;14.53;13.27;;;17.20;75.30;;;;;;5094566;28;20287;-89
2022/05/04 08:41:25;;;;;;;14.43;13.33;;;17.00;75.40;;;;;;5094722;28;20291;-90
2022/05/04 08:43:51;;;;;;;14.60;13.30;;;17.10;74.30;;;;;;5091275;28;20175;-89
2022/05/04 08:46:20;;;;;;;14.18;12.98;;;17.30;73.70;;;;;;5077125;28;20184;-89
2022/05/04 08:48:47;;;;;;;14.07;12.83;;;17.50;73.40;;;;;;5089683;28;20182;-89
2022/05/04 08:51:14;;;;;;;14.27;13.00;;;17.50;74.00;;;;;;5086531;28;20184;-89
2022/05/04 08:53:42;;;;;;;13.93;12.73;;;17.50;73.40;;;;;;5078319;28;20271;-89
2022/05/04 08:56:08;;;;;;;13.43;12.30;;;17.40;73.60;;;;;;5089186;28;20276;-89
2022/05/04 08:58:37;;;;;;;13.85;12.48;;;17.40;73.60;;;;;;5096890;28;20214;-89
2022/05/04 09:01:04;;;;;;;14.48;13.25;;;17.60;73.00;;;;;;5097824;28;20194;-88
2022/05/04 09:03:32;;;;;;;14.02;12.85;;;17.70;72.70;;;;;;5096448;28;20203;-89
2022/05/04 09:05:58;;;;;;;15.20;13.93;;;17.70;71.00;;;;;;5097517;28;20175;-89
2022/05/04 09:08:24;;;;;;;14.05;12.68;;;17.60;72.80;;;;;;5094158;28;20781;-89
2022/05/04 09:10:50;;;;;;;13.80;12.50;;;17.60;73.20;;;;;;5096770;28;20218;-88
2022/05/04 09:13:21;;;;;;;14.65;13.40;;;17.60;73.70;;;;;;5091546;28;20266;-89
2022/05/04 09:15:47;;;;;;;15.55;14.30;;;17.60;73.50;;;;;;5087543;28;20600;-89
2022/05/04 09:18:16;;;;;;;14.45;13.18;;;17.80;73.10;;;;;;5085060;28;20538;-89
2022/05/04 09:20:49;;;;;;;14.52;13.43;;;17.80;70.80;;;;;;5076566;28;20218;-89
2022/05/04 09:23:19;;;;;;;13.55;12.18;;;17.80;70.70;;;;;;5084748;28;20193;-88
2022/05/04 09:25:48;;;;;;;13.98;12.77;;;18.00;69.50;;;;;;5082689;28;20541;-89
2022/05/04 09:28:14;;;;;;;14.77;13.43;;;18.10;69.70;;;;;;5096887;28;20572;-89
2022/05/04 09:30:45;;;;;;;14.35;13.10;;;18.10;69.90;;;;;;5074897;28;20179;-89
2022/05/04 09:33:12;;;;;;;13.48;12.38;;;18.10;69.60;;;;;;5077501;28;20187;-89
2022/05/04 09:35:41;;;;;;;14.13;13.02;;;18.10;70.30;;;;;;5095449;28;20181;-89
2022/05/04 09:46:42;;;;;;;14.05;12.75;;;19.50;61.70;;;;;;5081127;28;20549;-89
2022/05/04 09:49:14;;;;;;;14.73;13.52;;;19.80;61.00;;;;;;5087894;28;20164;-89
2022/05/04 09:51:43;;;;;;;15.85;14.27;;;19.90;63.40;;;;;;5106404;28;20175;-89
2022/05/04 09:54:28;;;;;;;16.30;12.80;;;19.70;62.60;;;;;;5083177;28;20736;-89
2022/05/04 09:57:05;;;;;;;15.77;14.38;;;19.80;63.00;;;;;;5099422;28;20241;-89
2022/05/04 09:59:32;;;;;;;15.70;14.50;;;19.40;66.90;;;;;;5082371;28;20684;-90
2022/05/04 10:01:59;;;;;;;15.60;14.30;;;19.70;61.90;;;;;;5097707;28;20743;-89
2022/05/04 10:04:26;;;;;;;15.55;14.00;;;19.70;61.80;;;;;;5079915;28;20190;-89
2022/05/04 10:06:54;;;;;;;14.68;13.48;;;20.00;61.30;;;;;;5079371;28;20207;-89
2022/05/04 10:09:22;;;;;;;15.68;14.18;;;20.30;60.20;;;;;;5110620;28;20179;-88
2022/05/04 10:11:57;;;;;;;14.43;13.30;;;20.60;58.90;;;;;;5090399;28;20187;-88
2022/05/04 10:14:24;;;;;;;14.20;12.93;;;20.90;58.50;;;;;;5096373;28;20287;-88
2022/05/04 10:16:57;;;;;;;14.32;13.23;;;20.90;57.80;;;;;;5097534;28;20569;-89
2022/05/04 10:19:44;;;;;;;15.90;14.50;;;20.90;57.00;;;;;;5086814;28;20203;-88
2022/05/04 10:22:14;;;;;;;14.38;13.30;;;21.00;55.70;;;;;;5097660;28;20182;-88
2022/05/04 10:24:42;;;;;;;15.35;13.85;;;21.20;56.30;;;;;;5078534;28;20667;-89
2022/05/04 10:27:20;;;;;;;15.50;14.10;;;20.90;58.50;;;;;;5080233;28;20219;-88
2022/05/04 10:32:47;;;;;;;12.63;11.43;;;21.50;58.60;;;;;;5096807;28;20759;-89
2022/05/04 10:35:40;;;;;;;12.10;11.10;;;21.80;55.40;;;;;;5098054;28;20183;-89
2022/05/04 10:38:13;;;;;;;12.10;10.95;;;22.30;53.30;;;;;;5087698;28;20211;-88
2022/05/04 10:40:53;;;;;;;11.40;10.45;;;22.70;53.00;;;;;;5085007;28;20191;-88
2022/05/04 10:43:38;;;;;;;11.90;10.80;;;22.80;51.40;;;;;;5101517;28;20208;-88
2022/05/04 10:46:06;;;;;;;12.95;11.63;;;22.90;53.20;;;;;;5098187;28;20163;-88
2022/05/04 10:48:31;;;;;;;12.95;11.88;;;22.90;54.00;;;;;;5078479;28;20211;-88
2022/05/04 10:51:21;;;;;;;12.02;11.13;;;22.30;51.10;;;;;;5080540;28;20238;-89
2022/05/04 10:53:51;;;;;;;12.60;11.40;;;22.30;54.10;;;;;;5078717;28;20164;-88
2022/05/04 10:56:22;;;;;;;12.18;10.93;;;22.20;55.70;;;;;;5076903;28;20222;-89
2022/05/04 10:58:51;;;;;;;12.55;11.32;;;21.60;58.90;;;;;;5072389;28;20222;-88
2022/05/04 11:01:23;;;;;;;12.93;11.77;;;21.20;60.50;;;;;;5097996;28;20223;-89
2022/05/04 11:03:57;;;;;;;11.40;10.25;;;21.10;61.40;;;;;;5106697;28;20166;-88
2022/05/04 11:06:28;;;;;;;14.30;12.82;;;21.60;59.60;;;;;;5082756;28;20187;-89
2022/05/04 11:08:59;;;;;;;12.88;11.68;;;21.60;57.10;;;;;;5093538;28;20181;-88
2022/05/04 11:11:26;;;;;;;12.52;11.55;;;21.70;60.30;;;;;;5075186;28;20178;-89
2022/05/04 11:13:52;;;;;;;12.00;10.90;;;22.20;55.70;;;;;;5088455;28;20197;-88
2022/05/04 11:16:21;;;;;;;12.95;11.85;;;22.40;55.10;;;;;;5095245;28;20287;-89
2022/05/04 11:18:46;;;;;;;12.73;11.57;;;22.10;58.50;;;;;;5092585;28;20615;-89
2022/05/04 11:21:13;;;;;;;13.23;12.23;;;22.40;57.50;;;;;;5096395;28;20265;-89
2022/05/04 11:23:40;;;;;;;13.65;12.55;;;22.30;57.20;;;;;;5074640;28;20220;-88
2022/05/04 11:26:06;;;;;;;26.88;14.45;;;21.80;57.40;;;;;;5084317;28;20179;-85
2022/05/04 11:28:34;;;;;;;13.05;11.95;;;22.30;58.90;;;;;;5092673;28;20205;-88
2022/05/04 11:30:59;;;;;;;12.38;11.38;;;22.60;55.30;;;;;;5076350;28;20183;-91
2022/05/04 11:33:25;;;;;;;12.68;11.43;;;22.80;57.50;;;;;;5075546;28;20197;-91
2022/05/04 11:35:54;;;;;;;12.02;11.13;;;23.30;53.30;;;;;;5092820;28;20236;-88
2022/05/04 11:38:23;;;;;;;12.60;11.60;;;23.10;52.20;;;;;;5082519;28;20274;-88
2022/05/04 11:40:50;;;;;;;12.68;11.57;;;23.10;53.30;;;;;;5079362;28;20191;-88
2022/05/04 11:43:25;;;;;;;11.40;10.48;;;22.90;53.60;;;;;;5093728;28;20669;-88
2022/05/04 11:45:51;;;;;;;11.73;10.60;;;23.00;53.70;;;;;;5090175;28;20279;-88
2022/05/04 11:48:21;;;;;;;12.45;11.43;;;23.40;52.40;;;;;;5082662;28;20747;-89
2022/05/04 11:50:47;;;;;;;12.45;11.45;;;23.50;51.40;;;;;;5087126;28;20243;-88
2022/05/04 11:53:13;;;;;;;11.85;10.90;;;23.10;52.10;;;;;;5087315;28;20187;-89
2022/05/04 11:55:39;;;;;;;11.75;10.40;;;23.10;53.30;;;;;;5092731;28;20199;-89
2022/05/04 11:58:10;;;;;;;11.43;10.40;;;23.70;50.70;;;;;;5093195;28;20202;-88
2022/05/04 12:00:37;;;;;;;11.77;10.77;;;24.30;48.10;;;;;;5100165;28;20214;-89
2022/05/04 12:03:05;;;;;;;12.02;11.02;;;24.70;47.70;;;;;;5095691;28;20175;-89
2022/05/04 12:05:33;;;;;;;11.32;10.43;;;25.10;46.70;;;;;;5060256;28;20183;-89
2022/05/04 12:07:59;;;;;;;11.15;10.25;;;25.30;46.90;;;;;;5090959;28;20190;-89
2022/05/04 12:10:26;;;;;;;11.50;10.65;;;25.10;46.20;;;;;;5094119;28;20182;-89
2022/05/04 12:12:52;;;;;;;10.90;10.02;;;25.20;46.00;;;;;;5077845;28;20193;-89
2022/05/04 12:15:22;;;;;;;11.38;10.57;;;25.30;46.50;;;;;;5079910;28;20179;-89
2022/05/04 12:17:48;;;;;;;10.60;9.70;;;25.40;45.20;;;;;;5092326;28;20594;-89
2022/05/04 12:20:18;;;;;;;10.57;9.68;;;25.60;45.20;;;;;;5090977;28;20735;-90
2022/05/04 12:22:44;;;;;;;10.55;9.73;;;26.00;45.20;;;;;;5087746;28;20209;-89
2022/05/04 12:25:09;;;;;;;11.07;10.13;;;25.80;44.00;;;;;;5079086;28;20187;-89
2022/05/04 12:27:37;;;;;;;10.25;9.38;;;26.00;43.00;;;;;;5083096;28;20210;-89
2022/05/04 12:35:33;;;;;;;10.15;9.30;;;26.40;41.80;;;;;;5072939;28;20199;-89
2022/05/04 12:37:58;;;;;;;10.63;9.60;;;26.60;40.50;;;;;;5089960;28;20234;-89
2022/05/04 12:40:28;;;;;;;9.57;8.80;;;26.60;41.40;;;;;;5086617;28;20213;-89
2022/05/04 12:42:54;;;;;;;11.45;10.50;;;27.00;41.10;;;;;;5083623;28;20191;-90
2022/05/04 12:45:23;;;;;;;9.93;9.02;;;27.10;39.80;;;;;;5052408;28;20202;-89
2022/05/04 12:47:49;;;;;;;9.43;8.73;;;26.50;39.30;;;;;;5074063;28;20192;-89
2022/05/04 12:50:15;;;;;;;9.98;9.07;;;26.50;39.30;;;;;;5093918;28;20189;-89
2022/05/04 12:52:41;;;;;;;9.32;8.52;;;26.90;40.10;;;;;;5091041;28;20258;-89
2022/05/04 12:55:07;;;;;;;8.93;8.13;;;27.30;38.00;;;;;;5094704;28;20641;-89
2022/05/04 12:57:32;;;;;;;8.95;8.25;;;27.70;36.20;;;;;;5103017;28;20218;-89
2022/05/04 12:59:58;;;;;;;10.07;9.07;;;28.00;35.10;;;;;;5093795;28;20306;-89
2022/05/04 13:02:24;;;;;;;9.65;8.30;;;27.80;33.70;;;;;;5075997;28;20193;-89
2022/05/04 13:04:50;;;;;;;8.98;8.13;;;28.20;34.40;;;;;;5055824;28;20212;-90
2022/05/04 13:07:15;;;;;;;8.02;7.30;;;28.20;35.40;;;;;;5067994;28;20214;-89
2022/05/04 13:09:43;;;;;;;7.90;7.28;;;28.40;34.10;;;;;;5076171;28;20578;-89
2022/05/04 13:12:11;;;;;;;8.75;8.05;;;28.20;33.20;;;;;;5093796;28;20186;-89
2022/05/04 13:14:38;;;;;;;9.65;8.68;;;28.40;33.60;;;;;;5088074;28;20252;-89
2022/05/04 13:17:04;;;;;;;9.02;8.30;;;28.50;33.00;;;;;;5074399;28;20876;-89